Time;durP1;ratioP1;P1;durP2;ratioP2;P2;SDS_P1;SDS_P2;PMS_P1;PMS_P2;Temp;Humidity;BMP_temperature;BMP_pressure;BME280_temperature;BME280_humidity;BME280_pressure;Samples;Min_cycle;Max_cycle;Signal;HPM_P1;HPM_P2
2021/05/15 00:01:57;;;;;;;0.90;0.80;;;;;;;;;;5015798;28;20634;-83
2021/05/15 00:04:24;;;;;;;0.80;0.80;;;;;;;;;;5015282;28;20210;-83
2021/05/15 00:06:51;;;;;;;0.52;0.50;;;;;;;;;;5014928;28;20200;-82
2021/05/15 00:09:18;;;;;;;0.88;0.80;;;;;;;;;;5015442;28;20225;-82
2021/05/15 00:11:46;;;;;;;0.70;0.70;;;;;;;;;;5015197;28;20226;-82
2021/05/15 00:14:13;;;;;;;0.50;0.50;;;;;;;;;;5015308;28;20209;-82
2021/05/15 00:16:39;;;;;;;1.60;1.23;;;;;;;;;;5015251;28;20246;-82
2021/05/15 00:19:07;;;;;;;1.40;1.30;;;;;;;;;;5015014;28;20218;-82
2021/05/15 00:21:34;;;;;;;3.13;1.25;;;;;;;;;;5015103;28;20195;-83
2021/05/15 00:24:00;;;;;;;1.77;1.67;;;;;;;;;;5015037;28;20199;-82
2021/05/15 00:26:27;;;;;;;1.60;1.50;;;;;;;;;;5014854;28;20206;-83
2021/05/15 00:28:55;;;;;;;2.15;1.95;;;;;;;;;;5014855;28;20210;-82
2021/05/15 00:31:22;;;;;;;1.70;1.60;;;;;;;;;;5014967;28;20223;-82
2021/05/15 00:33:49;;;;;;;3.00;2.80;;;;;;;;;;5015114;28;20210;-82
2021/05/15 00:36:15;;;;;;;2.10;2.00;;;;;;;;;;5014563;28;20214;-82
2021/05/15 00:38:42;;;;;;;2.38;2.22;;;;;;;;;;5014988;28;20219;-82
2021/05/15 00:41:10;;;;;;;2.28;2.13;;;;;;;;;;5015833;28;20249;-82
2021/05/15 00:43:45;;;;;;;3.17;2.65;;;;;;;;;;5015859;28;20304;-82
2021/05/15 00:46:14;;;;;;;3.55;3.25;;;;;;;;;;5015978;28;20211;-82
2021/05/15 00:48:40;;;;;;;2.75;2.55;;;;;;;;;;5015849;28;20203;-82
2021/05/15 00:51:07;;;;;;;2.78;2.58;;;;;;;;;;5015837;28;20227;-82
2021/05/15 00:53:34;;;;;;;1.92;1.83;;;;;;;;;;5015520;28;20210;-82
2021/05/15 00:56:01;;;;;;;3.30;2.13;;;;;;;;;;5016079;28;20207;-82
2021/05/15 00:58:28;;;;;;;3.65;2.80;;;;;;;;;;5015797;28;20203;-82
2021/05/15 01:00:55;;;;;;;2.78;2.58;;;;;;;;;;5015673;28;20223;-82
2021/05/15 01:03:23;;;;;;;4.00;3.17;;;;;;;;;;5015733;28;20653;-82
2021/05/15 01:05:49;;;;;;;2.40;2.20;;;;;;;;;;5016842;28;20198;-82
2021/05/15 01:08:19;;;;;;;1.92;1.83;;;;;;;;;;5019532;28;20574;-82
2021/05/15 01:10:46;;;;;;;5.13;2.83;;;;;;;;;;5030566;28;20305;-82
2021/05/15 01:13:13;;;;;;;2.70;2.50;;;;;;;;;;5038511;28;20233;-82
2021/05/15 01:15:40;;;;;;;2.10;1.90;;;;;;;;;;5038223;28;20230;-82
2021/05/15 01:18:07;;;;;;;2.40;2.20;;;;;;;;;;5037797;28;20206;-83
2021/05/15 01:20:35;;;;;;;2.78;2.58;;;;;;;;;;5037943;28;20222;-83
2021/05/15 01:23:02;;;;;;;2.75;2.35;;;;;;;;;;5038951;28;20202;-83
2021/05/15 01:25:29;;;;;;;2.50;2.30;;;;;;;;;;5037874;28;20199;-83
2021/05/15 01:27:56;;;;;;;2.45;2.25;;;;;;;;;;5038220;28;20203;-83
2021/05/15 01:30:24;;;;;;;3.13;2.47;;;;;;;;;;5037354;28;20222;-83
2021/05/15 01:32:50;;;;;;;4.10;2.80;;;;;;;;;;5038059;28;20613;-83
2021/05/15 01:35:18;;;;;;;2.08;1.98;;;;;;;;;;5037874;28;20203;-83
2021/05/15 01:37:45;;;;;;;2.65;2.45;;;;;;;;;;5037866;28;20221;-83
2021/05/15 01:40:14;;;;;;;2.30;2.20;;;;;;;;;;5037510;28;20739;-83
2021/05/15 01:42:41;;;;;;;3.00;2.70;;;;;;;;;;5037262;28;20202;-83
2021/05/15 01:45:09;;;;;;;2.22;2.10;;;;;;;;;;5037277;28;20807;-83
2021/05/15 01:47:37;;;;;;;2.70;2.50;;;;;;;;;;5037119;28;20202;-83
2021/05/15 01:50:05;;;;;;;2.20;2.10;;;;;;;;;;5037493;28;20628;-83
2021/05/15 01:52:32;;;;;;;2.40;2.30;;;;;;;;;;5037484;28;20233;-83
2021/05/15 01:54:59;;;;;;;2.67;2.47;;;;;;;;;;5037983;28;20202;-83
2021/05/15 01:57:27;;;;;;;2.90;2.70;;;;;;;;;;5036457;28;20248;-82
2021/05/15 01:59:53;;;;;;;2.72;2.53;;;;;;;;;;5036768;28;20225;-82
2021/05/15 02:02:20;;;;;;;2.78;2.58;;;;;;;;;;5037011;28;20202;-82
2021/05/15 02:04:47;;;;;;;2.85;2.65;;;;;;;;;;5037248;28;20293;-82
2021/05/15 02:07:14;;;;;;;2.50;2.30;;;;;;;;;;5038086;28;20206;-82
2021/05/15 02:09:41;;;;;;;2.55;2.35;;;;;;;;;;5036722;28;20237;-82
2021/05/15 02:12:08;;;;;;;3.10;2.90;;;;;;;;;;5036799;28;20222;-82
2021/05/15 02:14:36;;;;;;;2.90;2.70;;;;;;;;;;5037418;28;20202;-83
2021/05/15 02:17:03;;;;;;;3.20;3.00;;;;;;;;;;5036478;28;20223;-83
2021/05/15 02:19:30;;;;;;;3.72;3.53;;;;;;;;;;5036652;28;20221;-82
2021/05/15 02:21:56;;;;;;;4.30;2.95;;;;;;;;;;5036704;28;20676;-83
2021/05/15 02:24:23;;;;;;;3.15;2.92;;;;;;;;;;5036804;28;20210;-83
2021/05/15 02:26:50;;;;;;;3.20;2.90;;;;;;;;;;5036187;28;20657;-83
2021/05/15 02:29:17;;;;;;;3.60;3.30;;;;;;;;;;5037056;28;20223;-83
2021/05/15 02:31:44;;;;;;;3.72;3.42;;;;;;;;;;5037065;28;20696;-82
2021/05/15 02:34:11;;;;;;;3.17;2.97;;;;;;;;;;5036915;28;20206;-83
2021/05/15 02:36:38;;;;;;;2.38;2.17;;;;;;;;;;5036298;28;20207;-83
2021/05/15 02:39:05;;;;;;;1.20;1.10;;;;;;;;;;5036513;28;20202;-83
2021/05/15 02:41:32;;;;;;;2.28;1.17;;;;;;;;;;5035699;28;20701;-83
2021/05/15 02:43:59;;;;;;;1.20;1.10;;;;;;;;;;5037062;28;20361;-82
2021/05/15 02:46:26;;;;;;;1.30;1.20;;;;;;;;;;5036780;28;20194;-83
2021/05/15 02:48:53;;;;;;;1.80;1.65;;;;;;;;;;5035952;28;20213;-83
2021/05/15 02:51:20;;;;;;;1.48;1.27;;;;;;;;;;5035609;28;20206;-83
2021/05/15 02:53:47;;;;;;;1.63;1.48;;;;;;;;;;5036314;28;20716;-83
2021/05/15 02:56:14;;;;;;;1.75;1.50;;;;;;;;;;5036860;28;20213;-82
2021/05/15 02:58:41;;;;;;;1.85;1.75;;;;;;;;;;5036503;28;20213;-82
2021/05/15 03:01:07;;;;;;;1.60;1.50;;;;;;;;;;5034617;28;20226;-82
2021/05/15 03:03:34;;;;;;;3.45;1.40;;;;;;;;;;5035578;28;20202;-82
2021/05/15 03:06:02;;;;;;;1.85;1.60;;;;;;;;;;5036001;28;20206;-82
2021/05/15 03:08:29;;;;;;;1.65;1.55;;;;;;;;;;5035562;28;20202;-82
2021/05/15 03:10:56;;;;;;;2.08;1.70;;;;;;;;;;5035843;28;20234;-82
2021/05/15 03:13:22;;;;;;;1.80;1.70;;;;;;;;;;5035697;28;20222;-82
2021/05/15 03:15:49;;;;;;;2.15;1.90;;;;;;;;;;5036164;28;20234;-82
2021/05/15 03:18:16;;;;;;;1.70;1.60;;;;;;;;;;5035852;28;20206;-82
2021/05/15 03:20:43;;;;;;;2.50;2.30;;;;;;;;;;5036043;28;20233;-83
2021/05/15 03:23:11;;;;;;;2.17;2.05;;;;;;;;;;5036468;28;20202;-83
2021/05/15 03:25:38;;;;;;;1.80;1.70;;;;;;;;;;5036289;28;20217;-82
2021/05/15 03:28:05;;;;;;;1.70;1.60;;;;;;;;;;5036258;28;20217;-83
2021/05/15 03:30:32;;;;;;;1.48;1.38;;;;;;;;;;5036076;28;20310;-83
2021/05/15 03:32:59;;;;;;;1.65;1.55;;;;;;;;;;5036211;28;20225;-83
2021/05/15 03:35:27;;;;;;;1.45;1.35;;;;;;;;;;5035866;28;20626;-83
2021/05/15 03:37:54;;;;;;;1.58;1.13;;;;;;;;;;5036262;28;20525;-82
2021/05/15 03:40:22;;;;;;;1.35;1.25;;;;;;;;;;5035661;28;20603;-83
2021/05/15 03:42:49;;;;;;;1.48;1.38;;;;;;;;;;5036103;28;20198;-83
2021/05/15 03:45:16;;;;;;;2.17;1.30;;;;;;;;;;5035706;28;20267;-82
2021/05/15 03:47:42;;;;;;;2.03;1.17;;;;;;;;;;5035777;28;20210;-82
2021/05/15 03:50:10;;;;;;;1.25;1.15;;;;;;;;;;5035551;28;20233;-83
2021/05/15 03:52:37;;;;;;;1.50;1.40;;;;;;;;;;5036363;28;20230;-83
2021/05/15 03:55:05;;;;;;;1.40;1.08;;;;;;;;;;5035057;28;20213;-82
2021/05/15 03:57:33;;;;;;;1.65;1.30;;;;;;;;;;5035703;28;20206;-83
2021/05/15 04:00:00;;;;;;;1.95;1.73;;;;;;;;;;5035986;28;20222;-82
2021/05/15 04:02:27;;;;;;;2.28;2.08;;;;;;;;;;5035726;28;20553;-82
2021/05/15 04:04:56;;;;;;;2.40;2.20;;;;;;;;;;5035080;28;20206;-82
2021/05/15 04:07:23;;;;;;;3.15;2.47;;;;;;;;;;5036161;28;20198;-83
2021/05/15 04:09:49;;;;;;;2.97;2.78;;;;;;;;;;5035825;28;20226;-84
2021/05/15 04:12:16;;;;;;;2.80;2.50;;;;;;;;;;5037968;28;20555;-83
2021/05/15 04:14:48;;;;;;;2.90;2.70;;;;;;;;;;5037398;28;20209;-83
2021/05/15 04:17:22;;;;;;;2.92;2.72;;;;;;;;;;5037693;28;20230;-83
2021/05/15 04:19:49;;;;;;;2.72;2.47;;;;;;;;;;5037426;28;20226;-83
2021/05/15 04:22:16;;;;;;;3.08;2.78;;;;;;;;;;5037514;28;20260;-83
2021/05/15 04:24:43;;;;;;;2.63;2.42;;;;;;;;;;5038114;28;20178;-83
2021/05/15 04:27:10;;;;;;;3.30;3.00;;;;;;;;;;5036847;28;20206;-83
2021/05/15 04:29:37;;;;;;;3.20;2.80;;;;;;;;;;5036275;28;20222;-83
2021/05/15 04:32:06;;;;;;;2.90;2.70;;;;;;;;;;5036610;28;20202;-82
2021/05/15 04:34:33;;;;;;;2.25;2.05;;;;;;;;;;5036670;28;20249;-82
2021/05/15 04:37:00;;;;;;;3.25;2.80;;;;;;;;;;5036529;28;20194;-83
2021/05/15 04:39:28;;;;;;;2.70;2.50;;;;;;;;;;5035894;28;20276;-83
2021/05/15 04:41:55;;;;;;;3.17;2.28;;;;;;;;;;5040664;28;20210;-82
2021/05/15 04:44:22;;;;;;;2.38;2.10;;;;;;;;;;5039992;28;20210;-83
2021/05/15 04:46:50;;;;;;;2.72;2.45;;;;;;;;;;5041631;28;20203;-83
2021/05/15 04:49:19;;;;;;;1.73;1.60;;;;;;;;;;5040544;28;20244;-83
2021/05/15 04:51:46;;;;;;;3.15;2.00;;;;;;;;;;5041434;28;20213;-84
2021/05/15 04:54:13;;;;;;;2.65;2.45;;;;;;;;;;5041128;28;20693;-82
2021/05/15 04:56:40;;;;;;;1.77;1.67;;;;;;;;;;5042090;28;20191;-84
2021/05/15 04:59:07;;;;;;;4.30;1.88;;;;;;;;;;5041288;28;20226;-83
2021/05/15 05:01:34;;;;;;;3.60;3.30;;;;;;;;;;5040985;28;20211;-82
2021/05/15 05:04:03;;;;;;;2.85;2.65;;;;;;;;;;5042614;28;20198;-83
2021/05/15 05:06:31;;;;;;;3.03;2.83;;;;;;;;;;5042945;28;20198;-83
2021/05/15 05:08:58;;;;;;;2.88;2.67;;;;;;;;;;5043567;28;20202;-83
2021/05/15 05:11:25;;;;;;;3.25;2.70;;;;;;;;;;5044020;28;20233;-84
2021/05/15 05:13:52;;;;;;;2.45;2.25;;;;;;;;;;5044193;28;20288;-84
2021/05/15 05:16:20;;;;;;;2.92;2.55;;;;;;;;;;5045518;28;20233;-83
2021/05/15 05:18:46;;;;;;;3.08;2.58;;;;;;;;;;5045073;28;20206;-82
2021/05/15 05:21:13;;;;;;;3.47;3.17;;;;;;;;;;5045857;28;20203;-84
2021/05/15 05:23:41;;;;;;;3.90;3.17;;;;;;;;;;5045831;28;20214;-83
2021/05/15 05:26:08;;;;;;;3.63;3.00;;;;;;;;;;5045688;28;20299;-84
2021/05/15 05:28:35;;;;;;;3.08;2.80;;;;;;;;;;5044742;28;20261;-83
2021/05/15 05:31:04;;;;;;;3.08;2.85;;;;;;;;;;5045552;28;20622;-83
2021/05/15 05:33:32;;;;;;;3.00;2.80;;;;;;;;;;5045580;28;20222;-85
2021/05/15 05:35:59;;;;;;;3.17;2.88;;;;;;;;;;5046259;28;20213;-83
2021/05/15 05:38:26;;;;;;;2.75;2.53;;;;;;;;;;5044170;28;20275;-83
2021/05/15 05:40:54;;;;;;;3.25;2.95;;;;;;;;;;5043250;28;20694;-84
2021/05/15 05:43:20;;;;;;;2.45;2.25;;;;;;;;;;5044682;28;20209;-84
2021/05/15 05:45:47;;;;;;;2.20;1.98;;;;;;;;;;5045281;28;20206;-85
2021/05/15 05:48:18;;;;;;;3.60;2.20;;;;;;;;;;5045584;28;20249;-86
2021/05/15 05:50:45;;;;;;;2.50;2.30;;;;;;;;;;5045569;28;20275;-85
2021/05/15 05:53:12;;;;;;;2.60;1.90;;;;;;;;;;5044864;28;20692;-85
2021/05/15 05:55:39;;;;;;;3.30;2.40;;;;;;;;;;5046179;28;20206;-85
2021/05/15 05:58:07;;;;;;;2.10;1.90;;;;;;;;;;5043703;28;20381;-86
2021/05/15 06:00:33;;;;;;;3.17;2.47;;;;;;;;;;5042973;28;20222;-85
2021/05/15 06:03:00;;;;;;;1.83;1.73;;;;;;;;;;5044999;28;20209;-83
2021/05/15 06:05:27;;;;;;;3.38;2.42;;;;;;;;;;5043268;28;20195;-85
2021/05/15 06:07:54;;;;;;;2.90;2.60;;;;;;;;;;5042750;28;20202;-85
2021/05/15 06:10:21;;;;;;;2.03;1.92;;;;;;;;;;5043222;28;20218;-85
2021/05/15 06:12:48;;;;;;;1.83;1.73;;;;;;;;;;5046020;28;20641;-84
2021/05/15 06:15:15;;;;;;;2.25;2.13;;;;;;;;;;5045515;28;20231;-85
2021/05/15 06:17:42;;;;;;;2.42;2.22;;;;;;;;;;5044251;28;20237;-83
2021/05/15 06:20:10;;;;;;;1.90;1.80;;;;;;;;;;5044397;28;20226;-85
2021/05/15 06:22:37;;;;;;;2.35;2.15;;;;;;;;;;5043496;28;20210;-86
2021/05/15 06:25:05;;;;;;;3.53;2.15;;;;;;;;;;5044219;28;20206;-84
2021/05/15 06:27:32;;;;;;;3.95;2.85;;;;;;;;;;5043165;28;20183;-84
2021/05/15 06:29:59;;;;;;;1.90;1.80;;;;;;;;;;5043449;28;20218;-84
2021/05/15 06:32:26;;;;;;;2.03;1.80;;;;;;;;;;5044090;28;20277;-85
2021/05/15 06:34:53;;;;;;;1.90;1.80;;;;;;;;;;5044003;28;20222;-84
2021/05/15 06:37:20;;;;;;;2.30;1.98;;;;;;;;;;5046541;28;20209;-85
2021/05/15 06:39:48;;;;;;;3.45;2.10;;;;;;;;;;5047629;28;20229;-85
2021/05/15 06:42:15;;;;;;;2.55;2.33;;;;;;;;;;5047662;28;20198;-85
2021/05/15 06:44:42;;;;;;;3.22;2.00;;;;;;;;;;5047216;28;20222;-87
2021/05/15 06:47:11;;;;;;;2.33;2.10;;;;;;;;;;5047393;28;20234;-86
2021/05/15 06:49:39;;;;;;;2.17;1.98;;;;;;;;;;5047775;28;20225;-87
2021/05/15 06:52:06;;;;;;;2.10;1.88;;;;;;;;;;5047789;28;20198;-85
2021/05/15 06:54:33;;;;;;;6.38;2.15;;;;;;;;;;5047093;28;20222;-87
2021/05/15 06:57:00;;;;;;;2.55;2.10;;;;;;;;;;5046864;28;20199;-86
2021/05/15 06:59:27;;;;;;;1.70;1.60;;;;;;;;;;5046253;28;20214;-85
2021/05/15 07:01:54;;;;;;;2.20;2.10;;;;;;;;;;5046730;28;20218;-85
2021/05/15 07:04:21;;;;;;;1.75;1.65;;;;;;;;;;5046245;28;20182;-85
2021/05/15 07:06:48;;;;;;;2.00;1.90;;;;;;;;;;5045351;28;20271;-85
2021/05/15 07:09:16;;;;;;;2.00;1.90;;;;;;;;;;5046336;28;20226;-85
2021/05/15 07:11:43;;;;;;;2.20;2.10;;;;;;;;;;5046150;28;20183;-85
2021/05/15 07:14:09;;;;;;;2.13;1.92;;;;;;;;;;5045472;28;20225;-85
2021/05/15 07:16:36;;;;;;;2.38;1.98;;;;;;;;;;5047021;28;20226;-85
2021/05/15 07:19:04;;;;;;;2.47;2.28;;;;;;;;;;5043580;28;20554;-85
2021/05/15 07:21:31;;;;;;;2.15;1.95;;;;;;;;;;5045753;28;20198;-86
2021/05/15 07:23:58;;;;;;;2.28;2.10;;;;;;;;;;5045543;28;20258;-85
2021/05/15 07:26:25;;;;;;;1.80;1.70;;;;;;;;;;5045797;28;20718;-86
2021/05/15 07:28:52;;;;;;;1.83;1.73;;;;;;;;;;5044442;28;20259;-85
2021/05/15 07:31:19;;;;;;;1.90;1.80;;;;;;;;;;5044398;28;20182;-85
2021/05/15 07:33:46;;;;;;;3.20;2.03;;;;;;;;;;5046488;28;20283;-84
2021/05/15 07:36:13;;;;;;;2.20;2.10;;;;;;;;;;5044090;28;20202;-84
2021/05/15 07:38:42;;;;;;;2.15;1.95;;;;;;;;;;5041888;28;20185;-86
2021/05/15 07:41:10;;;;;;;2.10;1.95;;;;;;;;;;5042514;28;20281;-84
2021/05/15 07:43:37;;;;;;;2.08;1.83;;;;;;;;;;5043995;28;20221;-84
2021/05/15 07:46:04;;;;;;;3.72;2.15;;;;;;;;;;5043408;28;20217;-84
2021/05/15 07:48:37;;;;;;;2.13;1.92;;;;;;;;;;5041721;28;20199;-84
2021/05/15 07:51:07;;;;;;;3.88;2.17;;;;;;;;;;5041980;28;20222;-84
2021/05/15 07:53:34;;;;;;;1.83;1.73;;;;;;;;;;5042627;28;20194;-85
2021/05/15 07:56:03;;;;;;;1.70;1.60;;;;;;;;;;5043519;28;20210;-84
2021/05/15 07:58:31;;;;;;;4.32;1.85;;;;;;;;;;5042658;28;20195;-86
2021/05/15 08:00:58;;;;;;;2.05;1.92;;;;;;;;;;5042781;28;20700;-84
2021/05/15 08:03:25;;;;;;;4.70;1.67;;;;;;;;;;5042281;28;20194;-83
2021/05/15 08:05:52;;;;;;;2.05;1.95;;;;;;;;;;5042802;28;20205;-84
2021/05/15 08:08:19;;;;;;;2.00;1.90;;;;;;;;;;5042397;28;20190;-84
2021/05/15 08:10:46;;;;;;;2.00;1.50;;;;;;;;;;5042342;28;20222;-85
2021/05/15 08:13:14;;;;;;;1.40;1.30;;;;;;;;;;5043060;28;20210;-84
2021/05/15 08:15:42;;;;;;;1.50;1.40;;;;;;;;;;5044068;28;20238;-84
2021/05/15 08:18:11;;;;;;;1.52;1.42;;;;;;;;;;5047289;28;20197;-85
2021/05/15 08:20:38;;;;;;;1.50;1.40;;;;;;;;;;5044228;28;20230;-84
2021/05/15 08:23:09;;;;;;;1.45;1.30;;;;;;;;;;5043741;28;20680;-84
2021/05/15 08:25:35;;;;;;;2.08;1.30;;;;;;;;;;5044811;28;20210;-85
2021/05/15 08:28:06;;;;;;;1.30;1.20;;;;;;;;;;5043297;28;20202;-85
2021/05/15 08:30:33;;;;;;;1.13;1.13;;;;;;;;;;5040944;28;20604;-85
2021/05/15 08:33:01;;;;;;;1.10;1.10;;;;;;;;;;5040243;28;20684;-84
2021/05/15 08:35:28;;;;;;;1.05;1.05;;;;;;;;;;5040182;28;20217;-85
2021/05/15 08:37:55;;;;;;;1.63;1.48;;;;;;;;;;5042548;28;20206;-84
2021/05/15 08:40:24;;;;;;;1.35;1.25;;;;;;;;;;5040464;28;20226;-84
2021/05/15 08:42:53;;;;;;;1.70;1.38;;;;;;;;;;5040573;28;20178;-84
2021/05/15 08:45:22;;;;;;;1.23;1.13;;;;;;;;;;5040424;28;20215;-84
2021/05/15 08:47:52;;;;;;;1.27;1.27;;;;;;;;;;5040587;28;20191;-85
2021/05/15 08:50:23;;;;;;;1.50;1.40;;;;;;;;;;5040235;28;20223;-84
2021/05/15 08:52:51;;;;;;;1.60;1.50;;;;;;;;;;5040172;28;20183;-84
2021/05/15 08:55:22;;;;;;;2.00;1.48;;;;;;;;;;5040277;28;20256;-84
2021/05/15 08:57:48;;;;;;;1.52;1.42;;;;;;;;;;5039757;28;20187;-84
2021/05/15 09:00:19;;;;;;;2.15;2.05;;;;;;;;;;5039750;28;20230;-84
2021/05/15 09:02:48;;;;;;;2.05;1.95;;;;;;;;;;5039508;28;20187;-85
2021/05/15 09:05:18;;;;;;;1.55;1.45;;;;;;;;;;5039573;28;20194;-84
2021/05/15 09:07:52;;;;;;;1.95;1.83;;;;;;;;;;5040152;28;20233;-84
2021/05/15 09:10:21;;;;;;;2.20;2.08;;;;;;;;;;5039869;28;20217;-85
2021/05/15 09:12:48;;;;;;;1.90;1.80;;;;;;;;;;5040177;28;20186;-85
2021/05/15 09:15:16;;;;;;;1.70;1.60;;;;;;;;;;5039987;28;20207;-85
2021/05/15 09:17:44;;;;;;;2.15;2.05;;;;;;;;;;5039660;28;20712;-85
2021/05/15 09:20:22;;;;;;;1.73;1.63;;;;;;;;;;5040480;28;20214;-84
2021/05/15 09:22:49;;;;;;;1.80;1.70;;;;;;;;;;5040434;28;20189;-84
2021/05/15 09:25:17;;;;;;;1.70;1.60;;;;;;;;;;5040229;28;20209;-83
2021/05/15 09:27:44;;;;;;;3.20;1.40;;;;;;;;;;5040018;28;20672;-84
2021/05/15 09:30:13;;;;;;;1.63;1.52;;;;;;;;;;5039788;28;20604;-84
2021/05/15 09:32:40;;;;;;;1.88;1.58;;;;;;;;;;5039438;28;20197;-83
2021/05/15 09:35:09;;;;;;;1.70;1.50;;;;;;;;;;5039619;28;20749;-84
2021/05/15 09:37:39;;;;;;;1.70;1.60;;;;;;;;;;5038079;28;20198;-85
2021/05/15 09:40:17;;;;;;;2.13;1.42;;;;;;;;;;5039391;28;20222;-85
2021/05/15 09:42:50;;;;;;;0.85;0.85;;;;;;;;;;5039820;28;20244;-84
2021/05/15 09:45:23;;;;;;;0.80;0.80;;;;;;;;;;5039361;28;20198;-84
2021/05/15 09:47:55;;;;;;;0.70;0.70;;;;;;;;;;5039361;28;20547;-83
2021/05/15 09:50:25;;;;;;;0.60;0.60;;;;;;;;;;5039824;28;20597;-83
2021/05/15 09:53:05;;;;;;;0.75;0.50;;;;;;;;;;5039603;28;20202;-84
2021/05/15 09:55:33;;;;;;;5.68;2.50;;;;;;;;;;5039496;28;20687;-84
2021/05/15 09:58:03;;;;;;;0.55;0.50;;;;;;;;;;5039321;28;20195;-84
2021/05/15 10:00:40;;;;;;;2.35;0.55;;;;;;;;;;5039655;28;20588;-85
2021/05/15 10:03:16;;;;;;;0.50;0.50;;;;;;;;;;5039444;28;20557;-84
2021/05/15 10:05:43;;;;;;;2.47;0.73;;;;;;;;;;5039764;28;20188;-85
2021/05/15 10:08:11;;;;;;;0.43;0.43;;;;;;;;;;5039088;28;20190;-86
2021/05/15 10:10:38;;;;;;;0.73;0.73;;;;;;;;;;5040032;28;20738;-85
2021/05/15 10:13:05;;;;;;;0.77;0.77;;;;;;;;;;5040581;28;20190;-85
2021/05/15 10:15:32;;;;;;;0.65;0.65;;;;;;;;;;5040272;28;20746;-83
2021/05/15 10:17:59;;;;;;;0.98;0.63;;;;;;;;;;5039490;28;20199;-84
2021/05/15 10:20:26;;;;;;;0.70;0.70;;;;;;;;;;5038579;28;20215;-84
2021/05/15 10:22:53;;;;;;;2.05;0.80;;;;;;;;;;5039356;28;20182;-85
2021/05/15 10:25:22;;;;;;;0.88;0.80;;;;;;;;;;5039486;28;20381;-85
2021/05/15 10:27:50;;;;;;;1.27;1.00;;;;;;;;;;5038968;28;20187;-85
2021/05/15 10:30:21;;;;;;;0.93;0.93;;;;;;;;;;5037656;28;20222;-84
2021/05/15 10:32:57;;;;;;;1.27;1.23;;;;;;;;;;5039036;28;20203;-85
2021/05/15 10:35:29;;;;;;;1.20;1.10;;;;;;;;;;5038683;28;20217;-85
2021/05/15 10:38:08;;;;;;;3.05;1.45;;;;;;;;;;5038613;28;20175;-84
2021/05/15 10:40:47;;;;;;;1.60;1.20;;;;;;;;;;5038712;28;20805;-84
2021/05/15 10:43:30;;;;;;;1.10;1.10;;;;;;;;;;5038899;28;20186;-85
2021/05/15 10:45:57;;;;;;;1.17;1.08;;;;;;;;;;5038304;28;20202;-84
2021/05/15 10:48:28;;;;;;;1.30;1.20;;;;;;;;;;5039224;28;20207;-85
2021/05/15 10:50:57;;;;;;;1.55;1.15;;;;;;;;;;5040571;28;20230;-86
2021/05/15 10:53:27;;;;;;;1.25;1.17;;;;;;;;;;5040118;28;20197;-86
2021/05/15 10:56:13;;;;;;;1.20;1.13;;;;;;;;;;5039174;28;20333;-84
2021/05/15 10:58:47;;;;;;;1.00;1.00;;;;;;;;;;5039497;28;20209;-85
2021/05/15 11:01:16;;;;;;;0.98;0.90;;;;;;;;;;5039324;28;20182;-84
2021/05/15 11:03:44;;;;;;;1.00;1.00;;;;;;;;;;5040259;28;20202;-86
2021/05/15 11:06:20;;;;;;;0.95;0.95;;;;;;;;;;5039514;28;20209;-87
2021/05/15 11:08:58;;;;;;;1.15;0.90;;;;;;;;;;5038963;28;20190;-86
2021/05/15 11:11:39;;;;;;;1.08;1.00;;;;;;;;;;5039898;28;20186;-84
2021/05/15 11:14:27;;;;;;;1.25;1.15;;;;;;;;;;5040332;28;20190;-84
2021/05/15 11:17:13;;;;;;;1.38;1.33;;;;;;;;;;5039096;28;20226;-83
2021/05/15 11:19:48;;;;;;;1.40;1.30;;;;;;;;;;5039472;28;20317;-85
2021/05/15 11:22:15;;;;;;;1.70;1.60;;;;;;;;;;5040767;28;20186;-84
2021/05/15 11:24:52;;;;;;;1.60;1.50;;;;;;;;;;5039879;28;20199;-84
2021/05/15 11:27:19;;;;;;;1.60;1.50;;;;;;;;;;5039310;28;20209;-85
2021/05/15 11:29:50;;;;;;;1.48;1.38;;;;;;;;;;5038437;28;20221;-84
2021/05/15 11:32:21;;;;;;;1.77;1.67;;;;;;;;;;5037806;28;20234;-85
2021/05/15 11:34:50;;;;;;;1.63;1.52;;;;;;;;;;5039189;28;20178;-85
2021/05/15 11:37:18;;;;;;;1.92;1.83;;;;;;;;;;5037950;28;20229;-85
2021/05/15 11:39:52;;;;;;;1.95;1.85;;;;;;;;;;5038616;28;20218;-84
2021/05/15 11:42:19;;;;;;;3.78;2.85;;;;;;;;;;5038624;28;20210;-84
2021/05/15 11:44:53;;;;;;;1.60;1.50;;;;;;;;;;5038796;28;20202;-85
2021/05/15 11:47:23;;;;;;;1.60;1.50;;;;;;;;;;5037657;28;20186;-84
2021/05/15 11:50:01;;;;;;;1.70;1.60;;;;;;;;;;5036486;28;20222;-85
2021/05/15 11:52:34;;;;;;;2.33;2.13;;;;;;;;;;5037405;28;20576;-85
2021/05/15 11:55:01;;;;;;;2.38;1.75;;;;;;;;;;5037128;28;20719;-85
2021/05/15 11:57:29;;;;;;;1.52;1.42;;;;;;;;;;5036795;28;20216;-85
2021/05/15 12:00:09;;;;;;;1.70;1.60;;;;;;;;;;5036041;28;20226;-85
2021/05/15 12:02:40;;;;;;;3.25;1.50;;;;;;;;;;5037019;28;20577;-85
2021/05/15 12:05:14;;;;;;;1.50;1.40;;;;;;;;;;5036514;28;20194;-86
2021/05/15 12:07:46;;;;;;;1.38;1.25;;;;;;;;;;5035497;28;20202;-85
2021/05/15 12:10:17;;;;;;;1.58;1.48;;;;;;;;;;5035306;28;20704;-86
2021/05/15 12:12:54;;;;;;;1.40;1.30;;;;;;;;;;5035358;28;20190;-85
2021/05/15 12:15:22;;;;;;;2.13;1.92;;;;;;;;;;5035479;28;20186;-85
2021/05/15 12:17:49;;;;;;;1.40;1.30;;;;;;;;;;5036184;28;20187;-86
2021/05/15 12:20:33;;;;;;;1.35;1.25;;;;;;;;;;5035594;28;20711;-86
2021/05/15 12:23:09;;;;;;;1.60;1.35;;;;;;;;;;5036013;28;20198;-85
2021/05/15 12:25:37;;;;;;;1.45;1.40;;;;;;;;;;5035446;28;20240;-86
2021/05/15 12:28:05;;;;;;;1.40;1.30;;;;;;;;;;5034894;28;20641;-86
2021/05/15 12:30:36;;;;;;;1.17;1.17;;;;;;;;;;5034880;28;20218;-85
2021/05/15 12:33:06;;;;;;;1.38;1.27;;;;;;;;;;5035401;28;20198;-85
2021/05/15 12:35:33;;;;;;;1.52;1.42;;;;;;;;;;5035314;28;20266;-85
2021/05/15 12:38:02;;;;;;;2.25;1.33;;;;;;;;;;5035037;28;20187;-85
2021/05/15 12:40:31;;;;;;;1.40;1.30;;;;;;;;;;5035357;28;20226;-86
2021/05/15 12:43:09;;;;;;;2.15;1.50;;;;;;;;;;5035381;28;20537;-86
2021/05/15 12:45:38;;;;;;;1.85;1.70;;;;;;;;;;5034911;28;20183;-85
2021/05/15 12:48:18;;;;;;;1.70;1.60;;;;;;;;;;5034945;28;20198;-85
2021/05/15 12:50:49;;;;;;;2.05;1.42;;;;;;;;;;5034874;28;20222;-86
2021/05/15 12:53:17;;;;;;;2.55;1.80;;;;;;;;;;5034503;28;20559;-86
2021/05/15 12:55:49;;;;;;;1.67;1.30;;;;;;;;;;5035009;28;20270;-86
2021/05/15 12:58:19;;;;;;;1.65;1.55;;;;;;;;;;5034689;28;20622;-86
2021/05/15 13:00:59;;;;;;;1.85;1.30;;;;;;;;;;5035769;28;20641;-86
2021/05/15 13:03:27;;;;;;;1.30;1.20;;;;;;;;;;5038780;28;20206;-86
2021/05/15 13:05:54;;;;;;;2.25;2.08;;;;;;;;;;5038827;28;20183;-86
2021/05/15 13:08:29;;;;;;;1.60;1.50;;;;;;;;;;5038407;28;20186;-86
2021/05/15 13:11:08;;;;;;;1.70;1.60;;;;;;;;;;5038591;28;20627;-86
2021/05/15 13:13:35;;;;;;;1.45;1.35;;;;;;;;;;5038719;28;20190;-86
2021/05/15 13:16:05;;;;;;;2.13;2.00;;;;;;;;;;5038916;28;20226;-86
2021/05/15 13:18:33;;;;;;;1.85;1.73;;;;;;;;;;5039397;28;20183;-86
2021/05/15 13:20:59;;;;;;;3.63;1.80;;;;;;;;;;5039136;28;20218;-86
2021/05/15 13:23:26;;;;;;;2.05;1.83;;;;;;;;;;5039477;28;20209;-86
2021/05/15 13:25:53;;;;;;;2.03;1.90;;;;;;;;;;5039592;28;20209;-84
2021/05/15 13:28:20;;;;;;;3.35;2.00;;;;;;;;;;5040712;28;20190;-85
2021/05/15 13:30:47;;;;;;;2.22;2.03;;;;;;;;;;5039256;28;20265;-85
2021/05/15 13:33:15;;;;;;;1.75;1.63;;;;;;;;;;5039093;28;20202;-85
2021/05/15 13:35:43;;;;;;;1.70;1.60;;;;;;;;;;5039285;28;20210;-86
2021/05/15 13:38:11;;;;;;;1.30;1.20;;;;;;;;;;5039044;28;20684;-86
2021/05/15 13:40:39;;;;;;;2.83;1.83;;;;;;;;;;5039463;28;20593;-85
2021/05/15 13:43:06;;;;;;;1.08;1.02;;;;;;;;;;5040258;28;20198;-85
2021/05/15 13:45:34;;;;;;;1.48;1.38;;;;;;;;;;5039500;28;20210;-86
2021/05/15 13:48:00;;;;;;;1.95;1.10;;;;;;;;;;5039149;28;20237;-86
2021/05/15 13:50:29;;;;;;;1.42;1.30;;;;;;;;;;5038395;28;20222;-86
2021/05/15 13:52:56;;;;;;;1.55;1.45;;;;;;;;;;5038970;28;20197;-86
2021/05/15 13:55:24;;;;;;;2.65;1.25;;;;;;;;;;5039277;28;20541;-86
2021/05/15 13:57:52;;;;;;;1.33;1.27;;;;;;;;;;5038039;28;20302;-84
2021/05/15 14:00:19;;;;;;;1.70;1.60;;;;;;;;;;5037721;28;20341;-85
2021/05/15 14:02:46;;;;;;;1.70;1.38;;;;;;;;;;5038095;28;20281;-86
2021/05/15 14:05:16;;;;;;;2.85;1.30;;;;;;;;;;5038186;28;20199;-86
2021/05/15 14:07:44;;;;;;;1.50;1.40;;;;;;;;;;5038093;28;20203;-86
2021/05/15 14:10:12;;;;;;;1.70;1.60;;;;;;;;;;5037659;28;20258;-85
2021/05/15 14:12:39;;;;;;;2.67;1.92;;;;;;;;;;5036357;28;20206;-84
2021/05/15 14:15:08;;;;;;;1.83;1.73;;;;;;;;;;5037146;28;20724;-85
2021/05/15 14:17:35;;;;;;;1.70;1.60;;;;;;;;;;5038150;28;20238;-85
2021/05/15 14:20:05;;;;;;;1.10;1.10;;;;;;;;;;5037473;28;20214;-85
2021/05/15 14:22:32;;;;;;;1.38;1.27;;;;;;;;;;5037942;28;20202;-86
2021/05/15 14:25:00;;;;;;;1.35;1.30;;;;;;;;;;5037491;28;20723;-87
2021/05/15 14:27:27;;;;;;;2.80;1.42;;;;;;;;;;5037675;28;20727;-86
2021/05/15 14:29:54;;;;;;;1.77;1.67;;;;;;;;;;5037475;28;20309;-86
2021/05/15 14:32:20;;;;;;;1.33;1.23;;;;;;;;;;5038136;28;20226;-84
2021/05/15 14:34:47;;;;;;;1.60;1.50;;;;;;;;;;5037581;28;20533;-86
2021/05/15 14:37:14;;;;;;;1.52;1.42;;;;;;;;;;5037915;28;20223;-85
2021/05/15 14:39:41;;;;;;;2.00;1.50;;;;;;;;;;5036752;28;20696;-86
2021/05/15 14:42:10;;;;;;;1.60;1.50;;;;;;;;;;5037831;28;20206;-86
2021/05/15 14:44:41;;;;;;;1.80;1.70;;;;;;;;;;5038156;28;20210;-87
2021/05/15 14:47:10;;;;;;;1.60;1.50;;;;;;;;;;5037855;28;20229;-86
2021/05/15 14:49:40;;;;;;;1.15;1.08;;;;;;;;;;5039193;28;20222;-86
2021/05/15 14:52:08;;;;;;;1.88;1.10;;;;;;;;;;5038265;28;20198;-84